sensor_id;sensor_type;location;lat;lon;timestamp;P1;durP1;ratioP1;P2;durP2;ratioP2
19800;SDS011;10060;48.274;12.214;2022-08-03T00:02:10;5.20;;;2.53;;
19800;SDS011;10060;48.274;12.214;2022-08-03T00:05:12;2.55;;;2.20;;
19800;SDS011;10060;48.274;12.214;2022-08-03T00:08:15;4.65;;;2.30;;
19800;SDS011;10060;48.274;12.214;2022-08-03T00:11:17;3.45;;;2.60;;
19800;SDS011;10060;48.274;12.214;2022-08-03T00:14:21;5.60;;;2.70;;
19800;SDS011;10060;48.274;12.214;2022-08-03T00:17:23;3.00;;;2.30;;
19800;SDS011;10060;48.274;12.214;2022-08-03T00:20:25;2.60;;;2.10;;
19800;SDS011;10060;48.274;12.214;2022-08-03T00:23:27;4.57;;;2.25;;
19800;SDS011;10060;48.274;12.214;2022-08-03T00:26:29;3.25;;;2.28;;
19800;SDS011;10060;48.274;12.214;2022-08-03T00:29:33;3.97;;;2.45;;
19800;SDS011;10060;48.274;12.214;2022-08-03T00:32:35;5.88;;;2.38;;
19800;SDS011;10060;48.274;12.214;2022-08-03T00:35:37;6.22;;;2.47;;
19800;SDS011;10060;48.274;12.214;2022-08-03T00:38:39;5.22;;;2.38;;
19800;SDS011;10060;48.274;12.214;2022-08-03T00:41:42;4.45;;;2.45;;
19800;SDS011;10060;48.274;12.214;2022-08-03T00:44:45;5.50;;;2.35;;
19800;SDS011;10060;48.274;12.214;2022-08-03T00:47:47;6.03;;;2.50;;
19800;SDS011;10060;48.274;12.214;2022-08-03T00:50:50;2.95;;;2.20;;
19800;SDS011;10060;48.274;12.214;2022-08-03T00:53:52;4.30;;;2.10;;
19800;SDS011;10060;48.274;12.214;2022-08-03T00:56:54;4.75;;;2.35;;
19800;SDS011;10060;48.274;12.214;2022-08-03T00:59:58;4.25;;;2.88;;
19800;SDS011;10060;48.274;12.214;2022-08-03T01:03:00;3.28;;;2.08;;
19800;SDS011;10060;48.274;12.214;2022-08-03T01:06:04;3.97;;;2.40;;
19800;SDS011;10060;48.274;12.214;2022-08-03T01:09:11;2.97;;;1.90;;
19800;SDS011;10060;48.274;12.214;2022-08-03T01:12:17;3.78;;;2.15;;
19800;SDS011;10060;48.274;12.214;2022-08-03T01:15:24;3.28;;;1.90;;
19800;SDS011;10060;48.274;12.214;2022-08-03T01:18:28;3.35;;;2.03;;
19800;SDS011;10060;48.274;12.214;2022-08-03T01:21:33;3.60;;;2.50;;
19800;SDS011;10060;48.274;12.214;2022-08-03T01:24:43;2.70;;;2.00;;
19800;SDS011;10060;48.274;12.214;2022-08-03T01:27:50;4.07;;;1.88;;
19800;SDS011;10060;48.274;12.214;2022-08-03T01:30:58;3.47;;;2.30;;
19800;SDS011;10060;48.274;12.214;2022-08-03T01:34:02;3.72;;;2.22;;
19800;SDS011;10060;48.274;12.214;2022-08-03T01:37:05;6.20;;;2.25;;
19800;SDS011;10060;48.274;12.214;2022-08-03T01:40:10;3.25;;;2.13;;
19800;SDS011;10060;48.274;12.214;2022-08-03T01:43:14;3.33;;;2.63;;
19800;SDS011;10060;48.274;12.214;2022-08-03T01:46:18;4.63;;;2.75;;
19800;SDS011;10060;48.274;12.214;2022-08-03T01:49:21;5.10;;;2.33;;
19800;SDS011;10060;48.274;12.214;2022-08-03T01:52:25;4.80;;;2.10;;
19800;SDS011;10060;48.274;12.214;2022-08-03T01:55:27;6.53;;;2.63;;
19800;SDS011;10060;48.274;12.214;2022-08-03T01:58:32;6.38;;;2.28;;
19800;SDS011;10060;48.274;12.214;2022-08-03T02:01:37;5.88;;;2.13;;
19800;SDS011;10060;48.274;12.214;2022-08-03T02:04:39;4.90;;;2.20;;
19800;SDS011;10060;48.274;12.214;2022-08-03T02:07:42;2.20;;;1.88;;
19800;SDS011;10060;48.274;12.214;2022-08-03T02:10:44;7.63;;;2.50;;
19800;SDS011;10060;48.274;12.214;2022-08-03T02:13:47;5.15;;;2.35;;
19800;SDS011;10060;48.274;12.214;2022-08-03T02:16:53;4.45;;;2.08;;
19800;SDS011;10060;48.274;12.214;2022-08-03T02:19:55;3.25;;;1.85;;
19800;SDS011;10060;48.274;12.214;2022-08-03T02:22:59;3.55;;;1.98;;
19800;SDS011;10060;48.274;12.214;2022-08-03T02:26:03;3.08;;;2.00;;
19800;SDS011;10060;48.274;12.214;2022-08-03T02:29:14;3.15;;;2.10;;
19800;SDS011;10060;48.274;12.214;2022-08-03T02:32:22;4.35;;;1.90;;
19800;SDS011;10060;48.274;12.214;2022-08-03T02:35:25;3.40;;;1.77;;
19800;SDS011;10060;48.274;12.214;2022-08-03T02:38:30;2.15;;;1.95;;
19800;SDS011;10060;48.274;12.214;2022-08-03T02:41:34;3.10;;;2.28;;
19800;SDS011;10060;48.274;12.214;2022-08-03T02:44:38;3.92;;;2.30;;
19800;SDS011;10060;48.274;12.214;2022-08-03T02:47:44;3.88;;;1.83;;
19800;SDS011;10060;48.274;12.214;2022-08-03T02:50:48;4.53;;;2.30;;
19800;SDS011;10060;48.274;12.214;2022-08-03T02:53:52;2.13;;;1.92;;
19800;SDS011;10060;48.274;12.214;2022-08-03T02:56:55;3.55;;;1.90;;
19800;SDS011;10060;48.274;12.214;2022-08-03T02:59:58;2.30;;;1.90;;
19800;SDS011;10060;48.274;12.214;2022-08-03T03:03:02;2.05;;;1.60;;
19800;SDS011;10060;48.274;12.214;2022-08-03T03:06:05;6.25;;;2.47;;
19800;SDS011;10060;48.274;12.214;2022-08-03T03:09:08;6.15;;;1.90;;
19800;SDS011;10060;48.274;12.214;2022-08-03T03:12:11;2.30;;;1.80;;
19800;SDS011;10060;48.274;12.214;2022-08-03T03:15:14;2.25;;;2.05;;
19800;SDS011;10060;48.274;12.214;2022-08-03T03:18:17;4.68;;;1.90;;
19800;SDS011;10060;48.274;12.214;2022-08-03T03:21:20;6.95;;;2.17;;
19800;SDS011;10060;48.274;12.214;2022-08-03T03:24:22;2.90;;;2.35;;
19800;SDS011;10060;48.274;12.214;2022-08-03T03:27:25;2.78;;;2.05;;
19800;SDS011;10060;48.274;12.214;2022-08-03T03:30:28;3.38;;;2.58;;
19800;SDS011;10060;48.274;12.214;2022-08-03T03:33:31;3.83;;;2.05;;
19800;SDS011;10060;48.274;12.214;2022-08-03T03:36:34;3.97;;;2.50;;
19800;SDS011;10060;48.274;12.214;2022-08-03T03:39:36;3.10;;;2.00;;
19800;SDS011;10060;48.274;12.214;2022-08-03T03:42:38;4.00;;;2.08;;
19800;SDS011;10060;48.274;12.214;2022-08-03T03:45:41;2.72;;;2.00;;
19800;SDS011;10060;48.274;12.214;2022-08-03T03:48:45;4.43;;;2.10;;
19800;SDS011;10060;48.274;12.214;2022-08-03T03:51:48;3.33;;;2.40;;
19800;SDS011;10060;48.274;12.214;2022-08-03T03:54:53;4.07;;;2.42;;
19800;SDS011;10060;48.274;12.214;2022-08-03T03:57:55;5.55;;;2.20;;
19800;SDS011;10060;48.274;12.214;2022-08-03T04:00:58;10.02;;;3.63;;
19800;SDS011;10060;48.274;12.214;2022-08-03T04:04:01;4.63;;;2.38;;
19800;SDS011;10060;48.274;12.214;2022-08-03T04:07:33;3.03;;;2.40;;
19800;SDS011;10060;48.274;12.214;2022-08-03T04:11:01;2.35;;;2.15;;
19800;SDS011;10060;48.274;12.214;2022-08-03T04:14:05;3.88;;;2.03;;
19800;SDS011;10060;48.274;12.214;2022-08-03T04:17:09;8.27;;;2.47;;
19800;SDS011;10060;48.274;12.214;2022-08-03T04:20:14;6.47;;;2.28;;
19800;SDS011;10060;48.274;12.214;2022-08-03T04:23:18;4.03;;;2.25;;
19800;SDS011;10060;48.274;12.214;2022-08-03T04:26:22;4.88;;;2.63;;
19800;SDS011;10060;48.274;12.214;2022-08-03T04:29:25;4.20;;;2.30;;
19800;SDS011;10060;48.274;12.214;2022-08-03T04:32:30;4.13;;;2.40;;
19800;SDS011;10060;48.274;12.214;2022-08-03T04:35:34;3.55;;;2.60;;
19800;SDS011;10060;48.274;12.214;2022-08-03T04:38:37;6.70;;;2.75;;
19800;SDS011;10060;48.274;12.214;2022-08-03T04:41:40;4.05;;;2.60;;
19800;SDS011;10060;48.274;12.214;2022-08-03T04:44:44;4.22;;;2.60;;
19800;SDS011;10060;48.274;12.214;2022-08-03T04:47:47;2.75;;;2.50;;
19800;SDS011;10060;48.274;12.214;2022-08-03T04:50:51;6.45;;;2.70;;
19800;SDS011;10060;48.274;12.214;2022-08-03T04:53:54;2.72;;;2.40;;
19800;SDS011;10060;48.274;12.214;2022-08-03T04:56:56;5.25;;;2.65;;
19800;SDS011;10060;48.274;12.214;2022-08-03T04:59:58;6.50;;;2.58;;
19800;SDS011;10060;48.274;12.214;2022-08-03T05:03:01;5.60;;;2.53;;
19800;SDS011;10060;48.274;12.214;2022-08-03T05:06:04;4.60;;;2.60;;
19800;SDS011;10060;48.274;12.214;2022-08-03T05:09:07;7.18;;;2.95;;
19800;SDS011;10060;48.274;12.214;2022-08-03T05:12:09;9.70;;;2.85;;
19800;SDS011;10060;48.274;12.214;2022-08-03T05:15:12;6.57;;;3.10;;
19800;SDS011;10060;48.274;12.214;2022-08-03T05:18:14;6.28;;;3.03;;
19800;SDS011;10060;48.274;12.214;2022-08-03T05:21:18;9.13;;;3.40;;
19800;SDS011;10060;48.274;12.214;2022-08-03T05:24:21;6.93;;;3.20;;
19800;SDS011;10060;48.274;12.214;2022-08-03T05:27:23;3.67;;;3.38;;
19800;SDS011;10060;48.274;12.214;2022-08-03T05:30:25;9.07;;;4.78;;
19800;SDS011;10060;48.274;12.214;2022-08-03T05:33:27;5.82;;;4.18;;
19800;SDS011;10060;48.274;12.214;2022-08-03T05:36:31;10.57;;;5.20;;
19800;SDS011;10060;48.274;12.214;2022-08-03T05:39:33;5.63;;;4.47;;
19800;SDS011;10060;48.274;12.214;2022-08-03T05:42:35;7.45;;;3.95;;
19800;SDS011;10060;48.274;12.214;2022-08-03T05:45:38;9.68;;;4.43;;
19800;SDS011;10060;48.274;12.214;2022-08-03T05:48:40;4.68;;;4.15;;
19800;SDS011;10060;48.274;12.214;2022-08-03T05:51:44;4.50;;;4.03;;
19800;SDS011;10060;48.274;12.214;2022-08-03T05:54:46;7.45;;;3.42;;
19800;SDS011;10060;48.274;12.214;2022-08-03T05:57:48;5.93;;;4.10;;
19800;SDS011;10060;48.274;12.214;2022-08-03T06:00:50;10.85;;;4.10;;
19800;SDS011;10060;48.274;12.214;2022-08-03T06:03:52;6.95;;;4.03;;
19800;SDS011;10060;48.274;12.214;2022-08-03T06:06:56;7.05;;;4.82;;
19800;SDS011;10060;48.274;12.214;2022-08-03T06:09:58;9.13;;;5.18;;
19800;SDS011;10060;48.274;12.214;2022-08-03T06:13:01;9.38;;;5.25;;
19800;SDS011;10060;48.274;12.214;2022-08-03T06:16:03;9.82;;;5.35;;
19800;SDS011;10060;48.274;12.214;2022-08-03T06:19:05;8.90;;;6.10;;
19800;SDS011;10060;48.274;12.214;2022-08-03T06:22:09;9.52;;;6.03;;
19800;SDS011;10060;48.274;12.214;2022-08-03T06:25:11;9.13;;;6.28;;
19800;SDS011;10060;48.274;12.214;2022-08-03T06:28:14;9.82;;;5.95;;
19800;SDS011;10060;48.274;12.214;2022-08-03T06:31:17;8.00;;;4.85;;
19800;SDS011;10060;48.274;12.214;2022-08-03T06:34:19;15.40;;;5.30;;
19800;SDS011;10060;48.274;12.214;2022-08-03T06:37:23;6.30;;;4.10;;
19800;SDS011;10060;48.274;12.214;2022-08-03T06:40:26;4.30;;;3.50;;
19800;SDS011;10060;48.274;12.214;2022-08-03T06:43:30;8.73;;;4.03;;
19800;SDS011;10060;48.274;12.214;2022-08-03T06:46:34;11.55;;;4.47;;
19800;SDS011;10060;48.274;12.214;2022-08-03T06:49:36;5.40;;;4.15;;
19800;SDS011;10060;48.274;12.214;2022-08-03T06:52:41;9.23;;;4.68;;
19800;SDS011;10060;48.274;12.214;2022-08-03T06:55:43;7.07;;;4.78;;
19800;SDS011;10060;48.274;12.214;2022-08-03T06:58:45;7.95;;;4.45;;
19800;SDS011;10060;48.274;12.214;2022-08-03T07:01:47;6.32;;;4.18;;
19800;SDS011;10060;48.274;12.214;2022-08-03T07:04:50;5.55;;;4.18;;
19800;SDS011;10060;48.274;12.214;2022-08-03T07:07:55;7.57;;;4.03;;
19800;SDS011;10060;48.274;12.214;2022-08-03T07:10:58;8.65;;;4.57;;
19800;SDS011;10060;48.274;12.214;2022-08-03T07:14:00;9.85;;;4.43;;
19800;SDS011;10060;48.274;12.214;2022-08-03T07:17:03;7.07;;;4.10;;
19800;SDS011;10060;48.274;12.214;2022-08-03T07:20:06;7.82;;;4.30;;
19800;SDS011;10060;48.274;12.214;2022-08-03T07:23:09;5.35;;;3.70;;
19800;SDS011;10060;48.274;12.214;2022-08-03T07:26:12;5.68;;;4.05;;
19800;SDS011;10060;48.274;12.214;2022-08-03T07:29:14;5.22;;;3.63;;
19800;SDS011;10060;48.274;12.214;2022-08-03T07:32:16;5.18;;;3.65;;
19800;SDS011;10060;48.274;12.214;2022-08-03T07:35:18;5.07;;;3.72;;
19800;SDS011;10060;48.274;12.214;2022-08-03T07:38:23;5.10;;;3.58;;
19800;SDS011;10060;48.274;12.214;2022-08-03T07:41:25;4.13;;;3.30;;
19800;SDS011;10060;48.274;12.214;2022-08-03T07:44:27;5.15;;;3.30;;
19800;SDS011;10060;48.274;12.214;2022-08-03T07:47:30;5.22;;;2.78;;
19800;SDS011;10060;48.274;12.214;2022-08-03T07:50:32;4.15;;;2.60;;
19800;SDS011;10060;48.274;12.214;2022-08-03T07:53:35;2.92;;;2.40;;
19800;SDS011;10060;48.274;12.214;2022-08-03T07:56:38;4.22;;;2.05;;
19800;SDS011;10060;48.274;12.214;2022-08-03T07:59:40;4.28;;;2.13;;
19800;SDS011;10060;48.274;12.214;2022-08-03T08:02:42;2.47;;;2.10;;
19800;SDS011;10060;48.274;12.214;2022-08-03T08:05:44;5.32;;;2.20;;
19800;SDS011;10060;48.274;12.214;2022-08-03T08:08:48;3.10;;;2.20;;
19800;SDS011;10060;48.274;12.214;2022-08-03T08:11:50;6.50;;;2.10;;
19800;SDS011;10060;48.274;12.214;2022-08-03T08:14:52;3.10;;;2.00;;
19800;SDS011;10060;48.274;12.214;2022-08-03T08:17:55;7.72;;;3.33;;
19800;SDS011;10060;48.274;12.214;2022-08-03T08:20:58;2.65;;;1.88;;
19800;SDS011;10060;48.274;12.214;2022-08-03T08:24:02;4.80;;;2.60;;
19800;SDS011;10060;48.274;12.214;2022-08-03T08:27:04;5.97;;;2.35;;
19800;SDS011;10060;48.274;12.214;2022-08-03T08:30:08;2.92;;;2.20;;
19800;SDS011;10060;48.274;12.214;2022-08-03T08:33:10;2.85;;;2.28;;
19800;SDS011;10060;48.274;12.214;2022-08-03T08:36:12;10.38;;;2.70;;
19800;SDS011;10060;48.274;12.214;2022-08-03T08:39:16;6.22;;;2.60;;
19800;SDS011;10060;48.274;12.214;2022-08-03T08:42:18;7.45;;;2.75;;
19800;SDS011;10060;48.274;12.214;2022-08-03T08:45:21;5.22;;;2.30;;
19800;SDS011;10060;48.274;12.214;2022-08-03T08:48:24;4.05;;;2.03;;
19800;SDS011;10060;48.274;12.214;2022-08-03T08:51:29;3.63;;;1.77;;
19800;SDS011;10060;48.274;12.214;2022-08-03T08:58:13;4.43;;;2.50;;
19800;SDS011;10060;48.274;12.214;2022-08-03T09:01:28;5.15;;;2.08;;
19800;SDS011;10060;48.274;12.214;2022-08-03T09:04:30;7.03;;;2.67;;
19800;SDS011;10060;48.274;12.214;2022-08-03T09:07:33;3.67;;;1.98;;
19800;SDS011;10060;48.274;12.214;2022-08-03T09:10:36;2.80;;;1.70;;
19800;SDS011;10060;48.274;12.214;2022-08-03T09:13:38;2.20;;;2.00;;
19800;SDS011;10060;48.274;12.214;2022-08-03T09:16:54;8.57;;;1.83;;
19800;SDS011;10060;48.274;12.214;2022-08-03T09:20:03;5.35;;;2.15;;
19800;SDS011;10060;48.274;12.214;2022-08-03T09:23:06;2.35;;;1.80;;
19800;SDS011;10060;48.274;12.214;2022-08-03T09:26:11;12.55;;;2.58;;
19800;SDS011;10060;48.274;12.214;2022-08-03T09:29:13;2.50;;;1.50;;
19800;SDS011;10060;48.274;12.214;2022-08-03T09:32:18;2.33;;;1.40;;
19800;SDS011;10060;48.274;12.214;2022-08-03T09:35:24;4.63;;;2.13;;
19800;SDS011;10060;48.274;12.214;2022-08-03T09:38:27;3.65;;;1.60;;
19800;SDS011;10060;48.274;12.214;2022-08-03T09:41:30;6.55;;;2.70;;
19800;SDS011;10060;48.274;12.214;2022-08-03T09:44:33;8.38;;;1.77;;
19800;SDS011;10060;48.274;12.214;2022-08-03T09:47:36;15.43;;;2.53;;
19800;SDS011;10060;48.274;12.214;2022-08-03T09:50:46;5.18;;;1.92;;
19800;SDS011;10060;48.274;12.214;2022-08-03T09:53:48;1.67;;;1.55;;
19800;SDS011;10060;48.274;12.214;2022-08-03T09:56:52;3.25;;;1.77;;
19800;SDS011;10060;48.274;12.214;2022-08-03T10:00:04;1.77;;;1.48;;
19800;SDS011;10060;48.274;12.214;2022-08-03T10:03:09;9.32;;;1.50;;
19800;SDS011;10060;48.274;12.214;2022-08-03T10:06:14;12.63;;;2.00;;
19800;SDS011;10060;48.274;12.214;2022-08-03T10:09:18;2.13;;;1.52;;
19800;SDS011;10060;48.274;12.214;2022-08-03T10:12:21;1.95;;;1.30;;
19800;SDS011;10060;48.274;12.214;2022-08-03T10:15:24;3.17;;;1.40;;
19800;SDS011;10060;48.274;12.214;2022-08-03T10:18:26;3.40;;;1.48;;
19800;SDS011;10060;48.274;12.214;2022-08-03T10:21:30;1.40;;;1.10;;
19800;SDS011;10060;48.274;12.214;2022-08-03T10:24:33;3.03;;;1.33;;
19800;SDS011;10060;48.274;12.214;2022-08-03T10:27:38;4.60;;;1.60;;
19800;SDS011;10060;48.274;12.214;2022-08-03T10:30:43;4.07;;;1.50;;
19800;SDS011;10060;48.274;12.214;2022-08-03T10:33:46;1.30;;;1.20;;
19800;SDS011;10060;48.274;12.214;2022-08-03T10:36:50;1.95;;;1.42;;
19800;SDS011;10060;48.274;12.214;2022-08-03T10:39:53;3.33;;;1.50;;
19800;SDS011;10060;48.274;12.214;2022-08-03T10:42:58;1.90;;;1.20;;
19800;SDS011;10060;48.274;12.214;2022-08-03T10:46:04;3.33;;;1.08;;
19800;SDS011;10060;48.274;12.214;2022-08-03T10:49:07;2.58;;;1.40;;
19800;SDS011;10060;48.274;12.214;2022-08-03T10:52:09;3.03;;;1.30;;
19800;SDS011;10060;48.274;12.214;2022-08-03T10:59:00;5.43;;;1.52;;
19800;SDS011;10060;48.274;12.214;2022-08-03T11:02:02;5.68;;;1.58;;
19800;SDS011;10060;48.274;12.214;2022-08-03T11:08:25;2.28;;;1.20;;
19800;SDS011;10060;48.274;12.214;2022-08-03T11:11:28;2.03;;;1.50;;
19800;SDS011;10060;48.274;12.214;2022-08-03T11:14:31;1.58;;;1.10;;
19800;SDS011;10060;48.274;12.214;2022-08-03T11:17:47;2.72;;;1.35;;
19800;SDS011;10060;48.274;12.214;2022-08-03T11:21:07;12.70;;;2.30;;
19800;SDS011;10060;48.274;12.214;2022-08-03T11:24:09;3.75;;;1.30;;
19800;SDS011;10060;48.274;12.214;2022-08-03T11:27:15;4.03;;;1.35;;
19800;SDS011;10060;48.274;12.214;2022-08-03T11:30:23;4.22;;;1.10;;
19800;SDS011;10060;48.274;12.214;2022-08-03T11:33:28;1.60;;;1.15;;
19800;SDS011;10060;48.274;12.214;2022-08-03T11:36:32;2.05;;;1.35;;
19800;SDS011;10060;48.274;12.214;2022-08-03T11:39:54;1.75;;;1.65;;
19800;SDS011;10060;48.274;12.214;2022-08-03T11:42:56;4.35;;;1.48;;
19800;SDS011;10060;48.274;12.214;2022-08-03T11:46:00;1.80;;;1.30;;
19800;SDS011;10060;48.274;12.214;2022-08-03T11:49:03;3.08;;;1.15;;
19800;SDS011;10060;48.274;12.214;2022-08-03T11:52:06;1.58;;;1.13;;
19800;SDS011;10060;48.274;12.214;2022-08-03T11:55:09;1.60;;;1.23;;
19800;SDS011;10060;48.274;12.214;2022-08-03T11:58:16;1.52;;;0.93;;
19800;SDS011;10060;48.274;12.214;2022-08-03T12:01:20;1.85;;;1.05;;
19800;SDS011;10060;48.274;12.214;2022-08-03T12:04:22;2.03;;;1.40;;
19800;SDS011;10060;48.274;12.214;2022-08-03T12:07:24;2.65;;;1.58;;
19800;SDS011;10060;48.274;12.214;2022-08-03T12:10:27;1.83;;;1.20;;
19800;SDS011;10060;48.274;12.214;2022-08-03T12:13:40;3.72;;;1.20;;
19800;SDS011;10060;48.274;12.214;2022-08-03T12:16:47;1.92;;;0.90;;
19800;SDS011;10060;48.274;12.214;2022-08-03T12:19:49;2.47;;;0.95;;
19800;SDS011;10060;48.274;12.214;2022-08-03T12:22:51;1.23;;;1.10;;
19800;SDS011;10060;48.274;12.214;2022-08-03T12:25:59;1.20;;;1.10;;
19800;SDS011;10060;48.274;12.214;2022-08-03T12:29:02;2.60;;;1.10;;
19800;SDS011;10060;48.274;12.214;2022-08-03T12:32:05;1.55;;;1.02;;
19800;SDS011;10060;48.274;12.214;2022-08-03T12:35:08;1.00;;;0.90;;
19800;SDS011;10060;48.274;12.214;2022-08-03T12:38:10;2.65;;;1.00;;
19800;SDS011;10060;48.274;12.214;2022-08-03T12:41:12;0.88;;;0.88;;
19800;SDS011;10060;48.274;12.214;2022-08-03T12:44:15;1.33;;;1.05;;
19800;SDS011;10060;48.274;12.214;2022-08-03T12:47:19;2.67;;;1.95;;
19800;SDS011;10060;48.274;12.214;2022-08-03T12:50:28;1.98;;;1.05;;
19800;SDS011;10060;48.274;12.214;2022-08-03T12:53:30;2.28;;;1.23;;
19800;SDS011;10060;48.274;12.214;2022-08-03T12:56:32;2.15;;;0.98;;
19800;SDS011;10060;48.274;12.214;2022-08-03T12:59:35;64.07;;;5.60;;
19800;SDS011;10060;48.274;12.214;2022-08-03T13:02:40;2.88;;;1.08;;
19800;SDS011;10060;48.274;12.214;2022-08-03T13:05:43;1.35;;;0.90;;
19800;SDS011;10060;48.274;12.214;2022-08-03T13:08:46;1.60;;;1.00;;
19800;SDS011;10060;48.274;12.214;2022-08-03T13:12:02;2.38;;;1.10;;
19800;SDS011;10060;48.274;12.214;2022-08-03T13:15:06;2.08;;;1.13;;
19800;SDS011;10060;48.274;12.214;2022-08-03T13:18:10;1.48;;;1.20;;
19800;SDS011;10060;48.274;12.214;2022-08-03T13:21:12;1.73;;;1.15;;
19800;SDS011;10060;48.274;12.214;2022-08-03T13:24:15;1.30;;;0.90;;
19800;SDS011;10060;48.274;12.214;2022-08-03T13:27:18;1.35;;;0.90;;
19800;SDS011;10060;48.274;12.214;2022-08-03T13:30:20;1.45;;;1.00;;
19800;SDS011;10060;48.274;12.214;2022-08-03T13:33:24;2.15;;;1.55;;
19800;SDS011;10060;48.274;12.214;2022-08-03T13:36:27;2.17;;;1.10;;
19800;SDS011;10060;48.274;12.214;2022-08-03T13:39:29;1.05;;;0.93;;
19800;SDS011;10060;48.274;12.214;2022-08-03T13:42:32;3.88;;;1.05;;
19800;SDS011;10060;48.274;12.214;2022-08-03T13:45:34;2.40;;;1.20;;
19800;SDS011;10060;48.274;12.214;2022-08-03T13:48:38;1.23;;;1.10;;
19800;SDS011;10060;48.274;12.214;2022-08-03T13:51:40;2.92;;;1.02;;
19800;SDS011;10060;48.274;12.214;2022-08-03T13:54:42;1.80;;;0.93;;
19800;SDS011;10060;48.274;12.214;2022-08-03T13:57:44;1.63;;;0.93;;
19800;SDS011;10060;48.274;12.214;2022-08-03T14:00:47;1.90;;;0.95;;
19800;SDS011;10060;48.274;12.214;2022-08-03T14:03:51;2.83;;;1.00;;
19800;SDS011;10060;48.274;12.214;2022-08-03T14:06:55;6.53;;;1.30;;
19800;SDS011;10060;48.274;12.214;2022-08-03T14:09:57;1.15;;;1.05;;
19800;SDS011;10060;48.274;12.214;2022-08-03T14:13:00;5.78;;;1.15;;
19800;SDS011;10060;48.274;12.214;2022-08-03T14:16:03;2.58;;;1.20;;
19800;SDS011;10060;48.274;12.214;2022-08-03T14:19:06;2.20;;;1.25;;
19800;SDS011;10060;48.274;12.214;2022-08-03T14:22:08;2.30;;;0.90;;
19800;SDS011;10060;48.274;12.214;2022-08-03T14:25:11;2.03;;;1.00;;
19800;SDS011;10060;48.274;12.214;2022-08-03T14:28:13;6.88;;;2.13;;
19800;SDS011;10060;48.274;12.214;2022-08-03T14:31:15;3.38;;;1.17;;
19800;SDS011;10060;48.274;12.214;2022-08-03T14:34:19;1.17;;;1.08;;
19800;SDS011;10060;48.274;12.214;2022-08-03T14:37:21;3.95;;;1.20;;
19800;SDS011;10060;48.274;12.214;2022-08-03T14:40:23;0.90;;;0.80;;
19800;SDS011;10060;48.274;12.214;2022-08-03T14:43:25;0.77;;;0.77;;
19800;SDS011;10060;48.274;12.214;2022-08-03T14:46:28;1.73;;;1.17;;
19800;SDS011;10060;48.274;12.214;2022-08-03T14:49:32;3.92;;;1.10;;
19800;SDS011;10060;48.274;12.214;2022-08-03T14:52:34;5.53;;;1.20;;
19800;SDS011;10060;48.274;12.214;2022-08-03T14:55:36;2.65;;;1.00;;
19800;SDS011;10060;48.274;12.214;2022-08-03T14:58:38;3.35;;;1.00;;
19800;SDS011;10060;48.274;12.214;2022-08-03T15:01:40;1.33;;;1.00;;
19800;SDS011;10060;48.274;12.214;2022-08-03T15:04:44;1.75;;;0.90;;
19800;SDS011;10060;48.274;12.214;2022-08-03T15:07:46;1.67;;;1.20;;
19800;SDS011;10060;48.274;12.214;2022-08-03T15:10:49;9.40;;;1.30;;
19800;SDS011;10060;48.274;12.214;2022-08-03T15:13:51;4.00;;;1.10;;
19800;SDS011;10060;48.274;12.214;2022-08-03T15:16:53;1.05;;;0.90;;
19800;SDS011;10060;48.274;12.214;2022-08-03T15:19:57;1.20;;;1.10;;
19800;SDS011;10060;48.274;12.214;2022-08-03T15:22:59;1.00;;;0.90;;
19800;SDS011;10060;48.274;12.214;2022-08-03T15:26:01;1.10;;;1.00;;
19800;SDS011;10060;48.274;12.214;2022-08-03T15:29:03;1.90;;;1.08;;
19800;SDS011;10060;48.274;12.214;2022-08-03T15:32:07;2.35;;;1.20;;
19800;SDS011;10060;48.274;12.214;2022-08-03T15:35:10;0.98;;;0.88;;
19800;SDS011;10060;48.274;12.214;2022-08-03T15:38:12;1.55;;;1.00;;
19800;SDS011;10060;48.274;12.214;2022-08-03T15:41:15;4.30;;;1.30;;
19800;SDS011;10060;48.274;12.214;2022-08-03T15:44:17;4.05;;;1.42;;
19800;SDS011;10060;48.274;12.214;2022-08-03T15:47:19;1.08;;;0.90;;
19800;SDS011;10060;48.274;12.214;2022-08-03T15:50:23;1.55;;;1.00;;
19800;SDS011;10060;48.274;12.214;2022-08-03T15:53:25;1.40;;;0.98;;
19800;SDS011;10060;48.274;12.214;2022-08-03T15:56:27;1.20;;;0.90;;
19800;SDS011;10060;48.274;12.214;2022-08-03T15:59:29;1.15;;;0.90;;
19800;SDS011;10060;48.274;12.214;2022-08-03T16:02:32;2.10;;;1.27;;
19800;SDS011;10060;48.274;12.214;2022-08-03T16:05:35;1.55;;;1.20;;
19800;SDS011;10060;48.274;12.214;2022-08-03T16:08:38;1.05;;;0.93;;
19800;SDS011;10060;48.274;12.214;2022-08-03T16:11:40;3.25;;;1.20;;
19800;SDS011;10060;48.274;12.214;2022-08-03T16:14:42;13.88;;;2.03;;
19800;SDS011;10060;48.274;12.214;2022-08-03T16:17:45;2.70;;;1.10;;
19800;SDS011;10060;48.274;12.214;2022-08-03T16:20:49;1.42;;;1.10;;
19800;SDS011;10060;48.274;12.214;2022-08-03T16:23:51;3.58;;;1.20;;
19800;SDS011;10060;48.274;12.214;2022-08-03T16:26:53;1.88;;;1.30;;
19800;SDS011;10060;48.274;12.214;2022-08-03T16:29:55;20.20;;;2.97;;
19800;SDS011;10060;48.274;12.214;2022-08-03T16:32:58;43.50;;;5.13;;
19800;SDS011;10060;48.274;12.214;2022-08-03T16:36:01;9.27;;;2.03;;
19800;SDS011;10060;48.274;12.214;2022-08-03T16:39:04;8.13;;;1.48;;
19800;SDS011;10060;48.274;12.214;2022-08-03T16:42:06;14.20;;;2.22;;
19800;SDS011;10060;48.274;12.214;2022-08-03T16:45:08;35.90;;;4.05;;
19800;SDS011;10060;48.274;12.214;2022-08-03T16:48:11;12.32;;;2.05;;
19800;SDS011;10060;48.274;12.214;2022-08-03T16:51:14;3.63;;;1.23;;
19800;SDS011;10060;48.274;12.214;2022-08-03T16:54:17;3.78;;;1.40;;
19800;SDS011;10060;48.274;12.214;2022-08-03T16:57:20;1.48;;;1.20;;
19800;SDS011;10060;48.274;12.214;2022-08-03T17:00:22;2.47;;;1.15;;
19800;SDS011;10060;48.274;12.214;2022-08-03T17:03:25;1.48;;;1.00;;
19800;SDS011;10060;48.274;12.214;2022-08-03T17:06:29;1.40;;;1.20;;
19800;SDS011;10060;48.274;12.214;2022-08-03T17:09:31;1.30;;;0.93;;
19800;SDS011;10060;48.274;12.214;2022-08-03T17:12:34;1.88;;;1.13;;
19800;SDS011;10060;48.274;12.214;2022-08-03T17:15:36;4.63;;;3.38;;
19800;SDS011;10060;48.274;12.214;2022-08-03T17:18:44;3.60;;;1.20;;
19800;SDS011;10060;48.274;12.214;2022-08-03T17:21:50;1.33;;;1.10;;
19800;SDS011;10060;48.274;12.214;2022-08-03T17:24:54;1.63;;;1.15;;
19800;SDS011;10060;48.274;12.214;2022-08-03T17:27:58;4.75;;;1.25;;
19800;SDS011;10060;48.274;12.214;2022-08-03T17:31:00;1.13;;;1.00;;
19800;SDS011;10060;48.274;12.214;2022-08-03T17:34:15;2.22;;;1.23;;
19800;SDS011;10060;48.274;12.214;2022-08-03T17:37:19;2.42;;;1.23;;
19800;SDS011;10060;48.274;12.214;2022-08-03T17:40:21;1.25;;;1.10;;
19800;SDS011;10060;48.274;12.214;2022-08-03T17:43:24;5.28;;;1.40;;
19800;SDS011;10060;48.274;12.214;2022-08-03T17:46:27;3.35;;;1.40;;
19800;SDS011;10060;48.274;12.214;2022-08-03T17:49:29;1.65;;;1.15;;
19800;SDS011;10060;48.274;12.214;2022-08-03T17:52:34;3.67;;;1.25;;
19800;SDS011;10060;48.274;12.214;2022-08-03T17:55:37;3.38;;;1.10;;
19800;SDS011;10060;48.274;12.214;2022-08-03T17:58:45;1.85;;;1.25;;
19800;SDS011;10060;48.274;12.214;2022-08-03T18:01:55;5.57;;;1.30;;
19800;SDS011;10060;48.274;12.214;2022-08-03T18:05:17;3.72;;;1.15;;
19800;SDS011;10060;48.274;12.214;2022-08-03T18:08:22;4.18;;;1.38;;
19800;SDS011;10060;48.274;12.214;2022-08-03T18:11:27;5.75;;;1.40;;
19800;SDS011;10060;48.274;12.214;2022-08-03T18:14:31;5.43;;;1.30;;
19800;SDS011;10060;48.274;12.214;2022-08-03T18:17:35;3.65;;;1.48;;
19800;SDS011;10060;48.274;12.214;2022-08-03T18:20:39;2.88;;;1.40;;